Bellaghy, United Kingdom
Current Conditions -  °F | °C
As of 4:50 AM on Sunday 23 Nov 2014 (Local Time) from EGAA Reporting Station
Clear Clear  
Wind Chill: 34°   Ceiling: Unl
Heat Index: 37°   Visibility: 6mi
Dew Point: 37°   Wind: 5mph
Humidity: 100%   Direction: 230°SW
Pressure: 30.03"   Gusts: NA
Location:  54.81°N, 6.52°W
Report Text: EGAA 230450Z 23004KT CAVOK 03/03 Q1017
Loading
Personal Weather Stations






























Interactive Weather Map New forecast layout! Learn more

10-Day Weather Forecast

Advertisements
Track Severe Weather on mobile